Latest Coastal Weather Observations for Robe Airport

IDS60701

Issued at 1:21 pm CST Tuesday 28 June 2022 (issued every 10 minutes, with the page automatically refreshed every 10 minutes)

About coastal observations | Map of coastal stations | Coastal observations for SA | Marine services | Other Formats
Station Details ID: 026105 Name: ROBE AIRFIELD Lat: -37.18 Lon: 139.81 Height: 3.0 m
Data from the previous 72 hours. | See also: Recent months at Robe Airport
Date/Time
CST
Wind Sea
Height
m
Swell Vis
km
Cloud Weather Temp
°C
Press
MSL
hPa
Rain since
9am
mm
Dir  Spd
kts
Gust
kts
Height
m
Period
s
Dir
28/01:00pm NNW 15 19 - - - - - - - 13.0 1026.8 0.0
28/12:30pm N 15 20 - - - - - - - 12.8 1027.0 0.0
28/12:00pm N 17 22 - - - - - - - 12.3 1027.4 0.0
28/11:30am N 16 21 - - - - - - - 12.3 1027.9 0.0
28/11:00am N 16 23 - - - - - - - 11.7 1028.2 0.0
28/10:30am N 17 23 - - - - - - - 11.0 1028.6 0.0
28/10:00am N 13 21 - - - - - - - 10.2 1028.8 0.0
28/09:30am N 13 17 - - - - - - - 8.6 1028.8 0.0
28/09:00am N 9 12 - - - - - - - 7.2 1028.8 0.0
28/08:30am N 9 13 - - - - - - - 6.2 1029.0 0.0
28/08:00am N 11 13 - - - - - - - 5.6 1029.0 0.0
28/07:30am NNE 11 13 - - - - - - - 5.4 1028.9 0.0
28/07:00am NNE 10 14 - - - - - - - 5.1 1028.6 0.0
28/06:30am NNE 6 8 - - - - - - - 5.0 1029.3 0.0
28/06:00am N 8 11 - - - - - - - 5.4 1029.0 0.0
28/05:30am N 8 10 - - - - - - - 5.7 1029.2 0.0
28/05:00am NNE 7 10 - - - - - - - 5.8 1028.8 0.0
28/04:30am NNE 9 12 - - - - - - - 5.7 1029.1 0.0
28/04:00am NNE 9 12 - - - - - - - 6.0 1029.4 0.0
28/03:30am NNE 8 11 - - - - - - - 6.3 1029.9 0.0
28/03:00am N 6 8 - - - - - - - 6.2 1030.3 0.0
28/02:30am NNE 6 9 - - - - - - - 6.3 1030.8 0.0
28/02:00am NNE 7 9 - - - - - - - 6.7 1030.8 0.0
28/01:30am NNE 9 11 - - - - - - - 7.2 1030.9 0.0
28/01:00am NNE 8 10 - - - - - - - 7.2 1031.1 0.0
28/12:30am NNE 8 9 - - - - - - - 7.3 1031.5 0.0
28/12:00am N 6 8 - - - - - - - 6.7 1031.9 0.0
 
Date/Time
CST
Wind Sea
Height
m
Swell Vis
km
Cloud Weather Temp
°C
Press
MSL
hPa
Rain since
9am
mm
Dir  Spd
kts
Gust
kts
Height
m
Period
s
Dir
27/11:30pm NNE 5 7 - - - - - - - 6.8 1032.1 0.0
27/11:00pm N 6 8 - - - - - - - 7.4 1032.1 0.0
27/10:30pm N 5 5 - - - - - - - 5.7 1032.4 0.0
27/10:00pm N 5 5 - - - - - - - 6.1 1032.4 0.0
27/09:30pm N 5 6 - - - - - - - 6.2 1032.4 0.0
27/09:00pm N 5 6 - - - - - - - 6.7 1032.5 0.0
27/08:30pm N 6 7 - - - - - - - 7.6 1032.5 0.0
27/08:00pm N 5 7 - - - - - - - 7.3 1032.6 0.0
27/07:30pm N 6 7 - - - - - - - 8.1 1032.5 0.0
27/07:00pm N 5 7 - - - - - - - 8.2 1032.6 0.0
27/06:30pm N 5 6 - - - - - - - 8.5 1032.8 0.0
27/06:00pm N 6 7 - - - - - - - 9.3 1032.6 0.0
27/05:30pm N 6 7 - - - - - - - 10.3 1032.6 0.0
27/05:00pm N 7 9 - - - - - - - 11.6 1032.6 0.0
27/04:30pm NNW 7 9 - - - - - - - 12.1 1032.9 0.0
27/04:00pm NNW 8 11 - - - - - - - 12.4 1032.9 0.0
27/03:30pm NNW 9 12 - - - - - - - 13.0 1032.9 0.0
27/03:00pm NNW 7 10 - - - - - - - 13.7 1033.0 0.0
27/02:30pm NNW 8 11 - - - - - - - 13.7 1033.2 0.0
27/02:00pm NNW 9 12 - - - - - - - 13.4 1033.4 0.0
27/01:30pm NNW 8 10 - - - - - - - 13.6 1033.7 0.0
27/01:00pm N 7 11 - - - - - - - 13.7 1034.0 0.0
27/12:30pm NNW 8 11 - - - - - - - 13.8 1034.4 0.0
27/12:00pm NW 5 8 - - - - - - - 13.7 1034.9 0.0
27/11:30am NW 5 7 - - - - - - - 13.2 1035.1 0.0
27/11:00am WNW 3 5 - - - - - - - 13.7 1035.4 0.0
27/10:30am NW 5 9 - - - - - - - 13.2 1035.6 0.0
27/10:00am WSW 2 3 - - - - - - - 12.8 1035.4 0.0
27/09:30am WSW 1 3 - - - - - - - 13.0 1035.2 0.0
27/09:00am WSW 3 4 - - - - - - - 10.6 1035.2 0.2
27/08:30am WSW 3 3 - - - - - - - 8.4 1034.8 0.2
27/08:00am CALM 0 3 - - - - - - - 7.5 1034.4 0.2
27/07:30am CALM 0 1 - - - - - - - 7.4 1034.1 0.2
27/07:00am CALM 0 0 - - - - - - - 7.7 1033.3 0.2
27/06:30am CALM 0 0 - - - - - - - 8.0 1033.3 0.2
27/06:00am CALM 0 0 - - - - - - - 8.1 1033.1 0.2
27/05:30am CALM 0 0 - - - - - - - 8.1 1032.9 0.2
27/05:00am WSW 2 3 - - - - - - - 7.6 1032.9 0.2
27/04:30am WSW 2 4 - - - - - - - 7.1 1032.8 0.2
27/04:00am CALM 0 0 - - - - - - - 7.2 1032.8 0.2
27/03:30am CALM 0 0 - - - - - - - 8.0 1032.9 0.2
27/03:00am CALM 0 0 - - - - - - - 8.9 1032.6 0.2
27/02:30am CALM 0 0 - - - - - - - 9.2 1032.8 0.2
27/02:00am S 2 3 - - - - - - - 9.4 1032.5 0.2
27/01:30am SSW 4 5 - - - - - - - 9.4 1032.5 0.2
27/01:00am SW 4 6 - - - - - - - 10.7 1032.7 0.2
27/12:30am SW 4 7 - - - - - - - 10.7 1032.6 0.2
27/12:00am SW 4 5 - - - - - - - 9.6 1032.7 0.2
 
Date/Time
CST
Wind Sea
Height
m
Swell Vis
km
Cloud Weather Temp
°C
Press
MSL
hPa
Rain since
9am
mm
Dir  Spd
kts
Gust
kts
Height
m
Period
s
Dir
26/11:30pm SW 5 6 - - - - - - - 10.1 1032.6 0.2
26/11:00pm SSW 3 7 - - - - - - - 9.2 1032.3 0.2
26/10:30pm SSW 3 4 - - - - - - - 8.9 1032.1 0.2
26/10:00pm SW 2 4 - - - - - - - 8.4 1031.9 0.2
26/09:30pm SW 4 6 - - - - - - - 9.3 1031.8 0.2
26/09:00pm SSW 5 7 - - - - - - - 9.2 1031.5 0.2
26/08:30pm SSW 4 5 - - - - - - - 9.0 1031.3 0.2
26/08:00pm S 5 6 - - - - - - - 9.3 1030.8 0.2
26/07:30pm SSW 5 6 - - - - - - - 9.9 1030.3 0.2
26/07:00pm SW 9 14 - - - - - - - 11.0 1030.0 0.2
26/06:30pm SSW 5 7 - - - - - - - 9.8 1029.7 0.2
26/06:00pm S 11 15 - - - - - - - 10.6 1029.4 0.2
26/05:30pm S 8 12 - - - - - - - 10.5 1029.0 0.2
26/05:00pm SSW 7 9 - - - - - - - 10.7 1028.7 0.2
26/04:30pm SSW 8 12 - - - - - - - 11.4 1028.4 0.2
26/04:00pm SSW 9 13 - - - - - - - 11.9 1027.9 0.2
26/03:30pm SSW 9 15 - - - - - - - 12.1 1027.6 0.2
26/03:00pm SSW 6 8 - - - - - - - 11.7 1027.4 0.2
26/02:30pm SSW 15 21 - - - - - - - 12.4 1027.1 0.2
26/02:00pm SSW 12 19 - - - - - - - 13.2 1026.9 0.2
26/01:30pm SW 10 17 - - - - - - - 12.2 1026.7 0.2
26/01:00pm SW 10 13 - - - - - - - 12.8 1026.3 0.0
26/12:30pm SSW 9 12 - - - - - - - 12.7 1026.4 0.0
26/12:00pm SSW 10 15 - - - - - - - 12.7 1026.4 0.0
26/11:30am SSW 12 16 - - - - - - - 12.7 1026.3 0.0
26/11:00am SSW 7 12 - - - - - - - 12.7 1026.6 0.0
26/10:30am SSW 10 16 - - - - - - - 12.6 1026.4 0.0
26/10:00am SW 6 12 - - - - - - - 12.7 1026.0 0.0
26/09:30am SSW 9 14 - - - - - - - 12.3 1025.6 0.0
26/09:00am SSW 7 13 - - - - - - - 12.2 1025.2 3.6
26/08:30am SSW 8 12 - - - - - - - 11.8 1024.9 3.6
26/08:00am SW 4 7 - - - - - - - 11.2 1024.7 3.6
26/07:30am SSW 3 12 - - - - - - - 10.9 1024.4 3.6
26/07:00am SSW 2 5 - - - - - - - 10.7 1023.9 3.6
26/06:30am SSW 4 7 - - - - - - - 11.1 1023.4 3.6
26/06:00am SSW 7 9 - - - - - - Recent precip. 10.8 1022.9 3.6
26/05:30am SW 8 16 - - - - - - - 11.5 1022.4 3.4
26/05:00am SW 6 10 - - - - - - - 12.1 1022.1 3.0
26/04:30am WSW 7 12 - - - - - - - 12.8 1021.8 3.0
26/04:00am W 6 12 - - - - - - - 13.2 1021.7 3.0
26/03:30am WSW 4 8 - - - - - - - 12.5 1021.7 3.0
26/03:00am W 5 9 - - - - - - - 12.8 1021.6 3.0
26/02:30am W 4 6 - - - - - - - 12.0 1021.5 3.0
26/02:00am WSW 7 13 - - - - - - - 12.8 1021.6 3.0
26/01:30am W 7 11 - - - - - - - 13.0 1021.4 3.0
26/01:00am W 8 14 - - - - - - - 13.2 1021.2 3.0
26/12:30am W 10 15 - - - - - - - 13.1 1021.1 3.0
26/12:00am W 7 11 - - - - - - - 13.3 1021.0 3.0
 
Date/Time
CST
Wind Sea
Height
m
Swell Vis
km
Cloud Weather Temp
°C
Press
MSL
hPa
Rain since
9am
mm
Dir  Spd
kts
Gust
kts
Height
m
Period
s
Dir
25/11:30pm W 6 10 - - - - - - - 13.1 1020.9 3.0
25/11:00pm W 6 11 - - - - - - - 13.3 1020.9 3.0
25/10:30pm W 9 14 - - - - - - - 13.5 1020.9 3.0
25/10:00pm W 9 16 - - - - - - - 13.4 1021.0 3.0
25/09:30pm W 9 15 - - - - - - - 13.4 1020.9 3.0
25/09:00pm W 9 14 - - - - - - - 12.7 1020.8 3.0
25/08:30pm W 9 16 - - - - - - - 12.1 1020.7 3.0
25/08:00pm W 11 17 - - - - - - - 13.0 1020.4 3.0
25/07:30pm WNW 8 12 - - - - - - - 12.6 1019.9 3.0
25/07:00pm WNW 12 23 - - - - - - - 12.9 1020.0 2.8
25/06:30pm W 8 14 - - - - - - - 13.8 1019.5 1.2
25/06:00pm NW 9 14 - - - - - - - 13.9 1019.1 1.2
25/05:30pm NW 9 13 - - - - - - - 13.7 1018.9 1.2
25/05:00pm NW 8 12 - - - - - - - 14.0 1018.7 1.2
25/04:30pm NW 10 16 - - - - - - - 14.2 1018.7 1.2
25/04:00pm WNW 10 13 - - - - - - - 14.2 1018.5 1.2
25/03:30pm NW 9 13 - - - - - - - 14.6 1018.5 1.2
25/03:00pm NW 10 15 - - - - - - - 13.7 1018.5 1.2
25/02:30pm NW 8 15 - - - - - - - 14.8 1018.5 1.2
25/02:00pm WNW 6 10 - - - - - - - 14.2 1018.6 1.2
25/01:30pm WNW 8 12 - - - - - - - 15.3 1018.8 0.8

Other formats

Comma delimited format used in spreadsheet applications
http://www.bom.gov.au/fwo/IDS60701/IDS60701.95816.axf

JavaScript Object Notation format (JSON) in row-major order
http://www.bom.gov.au/fwo/IDS60701/IDS60701.95816.json

Data quality

Most of these data are generated automatically and are frequently updated. Quality checks on data are not normally performed. It is possible for incorrect values to appear. Refer to information at About Latest Weather Observations and please check the disclaimer before using these data.